Time;durP1;ratioP1;P1;durP2;ratioP2;P2;SDS_P1;SDS_P2;PMS_P1;PMS_P2;Temp;Humidity;BMP_temperature;BMP_pressure;BME280_temperature;BME280_humidity;BME280_pressure;Samples;Min_cycle;Max_cycle;Signal;HPM_P1;HPM_P2
2023/10/30 00:04:54;;;;;;;0.00;0.00;;;;;;;22.01;100.00;99767.25;10284858;28;20046;-82
2023/10/30 00:09:56;;;;;;;0.00;0.00;;;;;;;21.11;100.00;99765.34;10297434;28;20062;-82
2023/10/30 00:15:02;;;;;;;0.43;0.15;;;;;;;21.55;100.00;99775.97;10285137;28;20074;-83
2023/10/30 00:20:05;;;;;;;0.00;0.00;;;;;;;21.45;100.00;99764.13;10272461;28;20055;-84
2023/10/30 00:25:07;;;;;;;0.10;0.05;;;;;;;21.87;100.00;99766.03;10264628;28;20054;-83
2023/10/30 00:30:09;;;;;;;0.00;0.00;;;;;;;21.16;100.00;99793.97;10279020;28;20038;-85
2023/10/30 00:35:11;;;;;;;0.00;0.00;;;;;;;20.99;100.00;99792.84;10273283;28;20125;-84
2023/10/30 00:40:13;;;;;;;0.00;0.00;;;;;;;20.87;100.00;99794.13;10271216;28;20058;-84
2023/10/30 00:45:14;;;;;;;0.75;0.32;;;;;;;21.65;100.00;99802.72;10265622;28;20110;-83
2023/10/30 00:50:16;;;;;;;0.00;0.00;;;;;;;21.11;100.00;99801.16;10280632;28;20097;-83
2023/10/30 00:55:17;;;;;;;1.98;0.52;;;;;;;20.61;100.00;99824.59;10281942;28;20062;-84
2023/10/30 01:00:19;;;;;;;0.13;0.13;;;;;;;20.61;100.00;99826.38;10286645;28;20053;-82
2023/10/30 01:05:21;;;;;;;1.90;1.13;;;;;;;20.66;100.00;99832.31;10285299;28;20424;-82
2023/10/30 01:10:23;;;;;;;0.10;0.10;;;;;;;20.86;100.00;99834.28;10277097;28;20047;-82
2023/10/30 01:15:24;;;;;;;2.08;0.35;;;;;;;20.84;100.00;99840.50;10285856;28;20054;-82
2023/10/30 01:20:26;;;;;;;0.00;0.00;;;;;;;21.46;100.00;99844.44;10275541;28;20054;-84
2023/10/30 01:25:27;;;;;;;0.00;0.00;;;;;;;21.09;100.00;99848.34;10284347;28;20062;-83
2023/10/30 01:30:29;;;;;;;0.32;0.32;;;;;;;21.47;100.00;99854.00;10277406;28;20042;-83
2023/10/30 01:35:31;;;;;;;0.00;0.00;;;;;;;20.68;100.00;99850.56;10276854;28;20047;-83
2023/10/30 01:40:33;;;;;;;1.30;0.10;;;;;;;21.59;100.00;99851.88;10290718;28;20732;-83
2023/10/30 01:45:34;;;;;;;0.00;0.00;;;;;;;20.75;100.00;99855.59;10293419;28;20089;-82
2023/10/30 01:50:37;;;;;;;0.22;0.22;;;;;;;20.76;100.00;99869.53;10293042;28;20433;-82
2023/10/30 01:55:39;;;;;;;0.00;0.00;;;;;;;20.57;100.00;99864.00;10293405;28;20077;-84
2023/10/30 02:00:44;;;;;;;0.00;0.00;;;;;;;21.16;100.00;99868.19;10273039;28;20047;-83
2023/10/30 02:05:46;;;;;;;2.85;0.22;;;;;;;20.92;100.00;99857.63;10280584;28;20039;-82
2023/10/30 02:10:47;;;;;;;0.00;0.00;;;;;;;20.72;100.00;99858.28;10287306;28;20047;-83
2023/10/30 02:15:49;;;;;;;0.00;0.00;;;;;;;21.09;100.00;99856.22;10306806;28;20053;-83
2023/10/30 02:20:51;;;;;;;0.00;0.00;;;;;;;21.07;100.00;99860.63;10283941;28;20043;-83
2023/10/30 02:25:52;;;;;;;0.00;0.00;;;;;;;21.04;100.00;99871.19;10291265;28;20050;-83
2023/10/30 02:30:54;;;;;;;0.13;0.13;;;;;;;21.31;100.00;99871.19;10292218;28;20042;-83
2023/10/30 02:35:55;;;;;;;0.00;0.00;;;;;;;21.49;100.00;99859.19;10275623;28;20066;-83
2023/10/30 02:40:58;;;;;;;0.32;0.10;;;;;;;21.21;100.00;99862.78;10279017;28;20054;-84
2023/10/30 02:46:00;;;;;;;0.00;0.00;;;;;;;20.64;100.00;99859.44;10285740;28;20423;-82
2023/10/30 02:51:03;;;;;;;0.05;0.00;;;;;;;21.07;100.00;99850.16;10283677;28;20138;-83
2023/10/30 02:56:05;;;;;;;3.83;1.25;;;;;;;21.96;100.00;99858.34;10284025;28;20518;-82
2023/10/30 03:01:07;;;;;;;0.20;0.10;;;;;;;21.29;100.00;99862.50;10288710;28;20050;-83
2023/10/30 03:06:08;;;;;;;0.10;0.00;;;;;;;21.13;100.00;99862.19;10281863;28;20051;-82
2023/10/30 03:11:10;;;;;;;4.43;0.13;;;;;;;20.90;100.00;99864.69;10289521;28;20053;-83
2023/10/30 03:16:12;;;;;;;0.00;0.00;;;;;;;20.81;100.00;99867.63;10285902;28;20050;-84
2023/10/30 03:21:13;;;;;;;0.70;0.68;;;;;;;21.60;100.00;99861.44;10290852;28;20054;-82
2023/10/30 03:26:15;;;;;;;0.08;0.08;;;;;;;21.84;100.00;99859.66;10287793;28;20043;-83
2023/10/30 03:31:17;;;;;;;0.00;0.00;;;;;;;21.30;100.00;99877.31;10287843;28;20070;-83
2023/10/30 03:36:23;;;;;;;0.08;0.00;;;;;;;20.70;100.00;99874.94;10268577;28;20050;-84
2023/10/30 03:41:25;;;;;;;0.00;0.00;;;;;;;20.93;100.00;99868.94;10287540;28;20455;-84
2023/10/30 03:46:26;;;;;;;0.00;0.00;;;;;;;21.81;100.00;99876.38;10285202;28;20676;-83
2023/10/30 03:51:28;;;;;;;4.28;0.60;;;;;;;20.50;100.00;99884.28;10274618;28;20099;-83
2023/10/30 03:56:29;;;;;;;0.00;0.00;;;;;;;20.73;100.00;99891.41;10283328;28;20097;-83
2023/10/30 04:01:31;;;;;;;0.00;0.00;;;;;;;21.32;100.00;99889.44;10282117;28;20584;-83
2023/10/30 04:06:34;;;;;;;0.05;0.03;;;;;;;20.31;100.00;99904.91;10280608;28;20070;-84
2023/10/30 04:11:36;;;;;;;0.00;0.00;;;;;;;21.16;100.00;99894.38;10279888;28;20085;-83
2023/10/30 04:16:38;;;;;;;0.00;0.00;;;;;;;20.95;100.00;99897.72;10284195;28;20045;-82
2023/10/30 04:21:43;;;;;;;0.20;0.20;;;;;;;21.73;100.00;99904.63;10286216;28;20277;-83
2023/10/30 04:26:44;;;;;;;0.55;0.20;;;;;;;21.34;100.00;99900.75;10278375;28;20486;-83
2023/10/30 04:31:46;;;;;;;1.17;0.80;;;;;;;21.71;100.00;99906.44;10265593;28;20058;-82
2023/10/30 04:36:48;;;;;;;0.10;0.10;;;;;;;21.51;100.00;99899.28;10278480;28;20043;-82
2023/10/30 04:41:49;;;;;;;0.00;0.00;;;;;;;22.06;100.00;99885.94;10286231;28;20121;-83
2023/10/30 04:46:52;;;;;;;1.00;0.35;;;;;;;21.34;100.00;99897.25;10282113;28;20046;-82
2023/10/30 04:51:53;;;;;;;0.00;0.00;;;;;;;22.18;100.00;99877.59;10280298;28;20058;-82
2023/10/30 04:56:55;;;;;;;0.10;0.10;;;;;;;22.34;100.00;99879.63;10283663;28;20493;-83
2023/10/30 05:01:56;;;;;;;0.05;0.00;;;;;;;22.07;100.00;99882.41;10284992;28;20043;-83
2023/10/30 05:06:58;;;;;;;0.20;0.00;;;;;;;21.27;100.00;99906.22;10280483;28;20046;-82
2023/10/30 05:12:00;;;;;;;0.52;0.10;;;;;;;21.48;100.00;99895.00;10273872;28;20079;-82
2023/10/30 05:17:01;;;;;;;0.00;0.00;;;;;;;22.00;100.00;99904.53;10285741;28;20059;-82
2023/10/30 05:22:04;;;;;;;0.55;0.28;;;;;;;21.51;100.00;99888.81;10284658;28;20058;-83
2023/10/30 05:27:05;;;;;;;0.00;0.00;;;;;;;20.79;100.00;99900.84;10282717;28;20046;-82
2023/10/30 05:32:07;;;;;;;0.00;0.00;;;;;;;20.90;100.00;99903.94;10284480;28;20051;-83
2023/10/30 05:37:09;;;;;;;0.00;0.00;;;;;;;21.16;100.00;99888.25;10286577;28;20418;-83
2023/10/30 05:42:11;;;;;;;0.20;0.20;;;;;;;20.68;100.00;99892.44;10300668;28;20050;-83
2023/10/30 05:47:13;;;;;;;0.25;0.20;;;;;;;21.21;100.00;99876.72;10279099;28;20050;-82
2023/10/30 05:52:15;;;;;;;0.22;0.20;;;;;;;21.27;100.00;99886.16;10279414;28;20461;-83
2023/10/30 05:57:17;;;;;;;1.45;0.20;;;;;;;21.16;100.00;99883.91;10301633;28;20055;-82
2023/10/30 06:02:18;;;;;;;0.88;0.30;;;;;;;20.95;100.00;99890.72;10282348;28;20074;-83
2023/10/30 06:07:20;;;;;;;0.00;0.00;;;;;;;21.07;100.00;99905.16;10284008;28;20051;-83
2023/10/30 06:12:22;;;;;;;0.00;0.00;;;;;;;21.18;100.00;99892.56;10284626;28;20054;-82
2023/10/30 06:17:23;;;;;;;0.00;0.00;;;;;;;20.69;100.00;99889.78;10273481;28;20121;-83
2023/10/30 06:22:25;;;;;;;1.00;0.25;;;;;;;20.28;100.00;99900.66;10284046;28;20565;-82
2023/10/30 06:27:27;;;;;;;0.00;0.00;;;;;;;20.78;100.00;99909.59;10279009;28;20054;-82
2023/10/30 06:32:31;;;;;;;0.43;0.20;;;;;;;22.14;100.00;99925.84;10274216;28;20058;-82
2023/10/30 06:37:33;;;;;;;1.27;1.17;;;;;;;22.64;100.00;99918.72;10282823;28;20129;-83
2023/10/30 06:42:35;;;;;;;0.00;0.00;;;;;;;21.39;100.00;99921.53;10307096;28;20046;-82
2023/10/30 06:47:36;;;;;;;0.00;0.00;;;;;;;22.23;100.00;99927.25;10290334;28;20071;-82
2023/10/30 06:52:38;;;;;;;0.00;0.00;;;;;;;21.04;100.00;99936.66;10290308;28;20421;-83
2023/10/30 06:57:40;;;;;;;0.55;0.20;;;;;;;21.44;100.00;99930.09;10284918;28;20043;-82
2023/10/30 07:02:41;;;;;;;0.00;0.00;;;;;;;20.87;100.00;99940.72;10290295;28;20074;-82
2023/10/30 07:07:43;;;;;;;0.10;0.00;;;;;;;21.99;100.00;99957.91;10288336;28;20046;-83
2023/10/30 07:12:44;;;;;;;0.20;0.20;;;;;;;21.05;100.00;99962.81;10275849;28;20042;-83
2023/10/30 07:17:47;;;;;;;0.10;0.10;;;;;;;21.04;100.00;99970.72;10298343;28;20101;-82
2023/10/30 07:22:49;;;;;;;0.05;0.05;;;;;;;21.71;100.00;99964.13;10282976;28;20054;-83
2023/10/30 07:27:51;;;;;;;1.42;0.35;;;;;;;20.67;100.00;99969.22;10286866;28;20050;-83
2023/10/30 07:32:52;;;;;;;0.00;0.00;;;;;;;21.80;100.00;99974.28;10284638;28;20051;-81
2023/10/30 07:37:54;;;;;;;0.00;0.00;;;;;;;21.54;100.00;99977.78;10285772;28;20887;-82
2023/10/30 07:42:55;;;;;;;0.00;0.00;;;;;;;22.70;100.00;99965.72;10283476;28;20050;-83
2023/10/30 07:47:57;;;;;;;0.00;0.00;;;;;;;23.18;100.00;99971.72;10265242;28;20413;-83
2023/10/30 07:52:59;;;;;;;0.25;0.25;;;;;;;22.51;100.00;99973.47;10281238;28;20074;-82
2023/10/30 07:58:01;;;;;;;0.28;0.20;;;;;;;22.37;100.00;99973.97;10284167;28;20038;-82
2023/10/30 08:03:03;;;;;;;0.10;0.00;;;;;;;22.08;100.00;99970.66;10284196;28;20046;-82
2023/10/30 08:08:05;;;;;;;0.00;0.00;;;;;;;22.65;100.00;99979.03;10287541;28;20047;-83
2023/10/30 08:13:07;;;;;;;0.08;0.08;;;;;;;21.95;100.00;99982.50;10288793;28;20807;-83
2023/10/30 08:18:08;;;;;;;2.83;0.43;;;;;;;22.31;100.00;99997.81;10288232;28;20047;-83
2023/10/30 08:23:11;;;;;;;0.00;0.00;;;;;;;21.86;100.00;99995.03;10286689;28;20058;-83
2023/10/30 08:28:13;;;;;;;0.25;0.25;;;;;;;22.03;100.00;100009.31;10286610;28;20089;-83
2023/10/30 08:33:14;;;;;;;1.42;0.17;;;;;;;22.17;100.00;100009.66;10283180;28;20620;-82
2023/10/30 08:38:16;;;;;;;0.22;0.22;;;;;;;22.30;100.00;100010.06;10290073;28;20474;-84
2023/10/30 08:43:17;;;;;;;0.10;0.10;;;;;;;22.14;100.00;100007.19;10268153;28;20043;-82
2023/10/30 08:48:19;;;;;;;2.42;1.02;;;;;;;22.90;100.00;99987.69;10282618;28;20062;-83
2023/10/30 08:53:21;;;;;;;0.00;0.00;;;;;;;22.62;100.00;99988.78;10255427;28;20134;-84
2023/10/30 08:58:22;;;;;;;0.22;0.22;;;;;;;23.27;100.00;99975.75;10275521;28;20406;-83
2023/10/30 09:03:24;;;;;;;0.00;0.00;;;;;;;23.37;100.00;99982.31;10272982;28;20051;-83
2023/10/30 09:08:26;;;;;;;0.47;0.47;;;;;;;22.93;100.00;99988.47;10286195;28;20054;-85
2023/10/30 09:13:27;;;;;;;0.22;0.10;;;;;;;22.31;100.00;100000.44;10274856;28;20461;-83
2023/10/30 09:18:29;;;;;;;0.00;0.00;;;;;;;21.86;100.00;99997.66;10283713;28;20089;-82
2023/10/30 09:23:30;;;;;;;0.00;0.00;;;;;;;22.24;100.00;100001.56;10286643;28;20050;-83
2023/10/30 09:28:32;;;;;;;0.38;0.38;;;;;;;22.45;100.00;100002.56;10270094;28;20051;-83
2023/10/30 09:33:33;;;;;;;0.17;0.10;;;;;;;22.67;100.00;99992.13;10263844;28;20055;-83
2023/10/30 09:38:35;;;;;;;0.00;0.00;;;;;;;22.57;100.00;100003.88;10266219;28;20055;-82
2023/10/30 09:43:37;;;;;;;0.10;0.10;;;;;;;22.35;100.00;100010.75;10256800;28;20055;-83
2023/10/30 09:48:40;;;;;;;0.00;0.00;;;;;;;21.89;100.00;99998.47;10286112;28;20467;-82
2023/10/30 09:53:42;;;;;;;0.40;0.20;;;;;;;22.87;100.00;100014.09;10283575;28;20571;-82
2023/10/30 09:58:44;;;;;;;0.00;0.00;;;;;;;21.88;100.00;100013.34;10283785;28;20732;-82
2023/10/30 10:03:46;;;;;;;0.20;0.13;;;;;;;22.67;100.00;100007.88;10289602;28;20054;-82
2023/10/30 10:08:48;;;;;;;0.35;0.20;;;;;;;23.46;100.00;99996.81;10291210;28;20481;-82
2023/10/30 10:13:49;;;;;;;0.00;0.00;;;;;;;23.83;100.00;99986.50;10290255;28;20054;-82
2023/10/30 10:19:21;;;;;;;0.00;0.00;;;;;;;23.55;100.00;99992.97;10286137;28;20039;-81
2023/10/30 10:24:32;;;;;;;0.10;0.10;;;;;;;22.81;100.00;100005.56;10300046;28;20560;-82
2023/10/30 10:29:35;;;;;;;1.75;1.08;;;;;;;22.65;100.00;99999.19;10282459;28;20094;-83
2023/10/30 10:34:37;;;;;;;0.20;0.20;;;;;;;23.66;100.00;99988.09;10272639;28;20066;-83
2023/10/30 10:39:49;;;;;;;0.05;0.00;;;;;;;23.69;100.00;99977.44;10284880;28;20050;-83
2023/10/30 10:44:52;;;;;;;0.15;0.08;;;;;;;23.31;100.00;99945.78;10288870;28;20047;-82
2023/10/30 10:49:55;;;;;;;0.00;0.00;;;;;;;24.16;100.00;99949.97;10282954;28;20061;-82
2023/10/30 10:55:03;;;;;;;1.25;0.98;;;;;;;24.59;100.00;99940.97;10280857;28;20061;-82
2023/10/30 11:00:07;;;;;;;0.10;0.00;;;;;;;24.32;100.00;99934.31;10285795;28;20098;-82
2023/10/30 11:05:09;;;;;;;0.00;0.00;;;;;;;24.36;100.00;99940.28;10286384;28;20050;-82
2023/10/30 11:10:23;;;;;;;0.03;0.03;;;;;;;24.79;100.00;99934.78;10271675;28;20051;-82
2023/10/30 11:15:49;;;;;;;0.32;0.20;;;;;;;23.48;100.00;99936.31;10271779;28;20042;-82
2023/10/30 11:21:10;;;;;;;0.00;0.00;;;;;;;23.82;100.00;99913.78;10282864;28;20050;-82
2023/10/30 11:26:38;;;;;;;0.10;0.10;;;;;;;24.45;100.00;99912.69;10302379;28;20506;-83
2023/10/30 11:31:50;;;;;;;0.60;0.55;;;;;;;24.87;100.00;99903.63;10291385;28;20066;-83
2023/10/30 11:36:52;;;;;;;0.20;0.20;;;;;;;23.57;100.00;99909.59;10284836;28;20035;-84
2023/10/30 11:41:54;;;;;;;0.35;0.20;;;;;;;24.10;100.00;99912.53;10274597;28;20054;-83
2023/10/30 11:46:57;;;;;;;0.00;0.00;;;;;;;23.45;100.00;99905.78;10285324;28;20101;-83
2023/10/30 11:51:59;;;;;;;0.30;0.10;;;;;;;23.61;100.00;99898.88;10279421;28;20105;-84
2023/10/30 11:57:01;;;;;;;0.30;0.10;;;;;;;23.77;100.00;99885.06;10285672;28;20066;-83
2023/10/30 12:02:04;;;;;;;0.30;0.10;;;;;;;23.80;100.00;99884.94;10302305;28;20046;-84
2023/10/30 12:07:06;;;;;;;1.75;0.20;;;;;;;24.02;100.00;99871.66;10283345;28;20043;-84
2023/10/30 12:12:08;;;;;;;0.00;0.00;;;;;;;24.13;100.00;99867.69;10281240;28;20059;-83
2023/10/30 12:17:11;;;;;;;0.10;0.10;;;;;;;24.75;100.00;99862.13;10277292;28;20049;-82
2023/10/30 12:22:13;;;;;;;0.20;0.10;;;;;;;23.00;100.00;99851.63;10279582;28;20105;-81
2023/10/30 12:27:22;;;;;;;2.83;0.43;;;;;;;24.03;100.00;99843.59;10280289;28;20047;-83
2023/10/30 12:32:26;;;;;;;1.90;0.30;;;;;;;23.43;100.00;99840.09;10275720;28;20035;-82
2023/10/30 12:37:29;;;;;;;0.00;0.00;;;;;;;23.97;100.00;99834.19;10279274;28;20129;-84
2023/10/30 12:42:33;;;;;;;0.00;0.00;;;;;;;24.12;100.00;99826.50;10278514;28;20077;-83
2023/10/30 12:47:36;;;;;;;0.15;0.03;;;;;;;24.01;100.00;99814.72;10274790;28;20051;-84
2023/10/30 12:52:38;;;;;;;0.00;0.00;;;;;;;24.61;100.00;99800.41;10262274;28;20105;-83
2023/10/30 12:57:40;;;;;;;1.02;0.57;;;;;;;24.69;100.00;99800.91;10276642;28;20086;-83
2023/10/30 13:02:42;;;;;;;0.35;0.20;;;;;;;24.39;100.00;99788.31;10272747;28;20053;-83
2023/10/30 13:07:44;;;;;;;0.00;0.00;;;;;;;25.19;100.00;99782.56;10297859;28;20043;-84
2023/10/30 13:12:45;;;;;;;0.00;0.00;;;;;;;25.38;100.00;99776.28;10277156;28;20051;-82
2023/10/30 13:17:47;;;;;;;0.28;0.10;;;;;;;24.13;100.00;99772.97;10279173;28;20076;-83
2023/10/30 13:22:49;;;;;;;0.30;0.10;;;;;;;25.41;100.00;99763.00;10280975;28;20501;-84
2023/10/30 13:27:50;;;;;;;0.00;0.00;;;;;;;25.70;100.00;99753.47;10268456;28;20054;-83
2023/10/30 13:32:52;;;;;;;0.45;0.10;;;;;;;25.90;100.00;99728.59;10297886;28;21649;-84
2023/10/30 13:37:54;;;;;;;0.00;0.00;;;;;;;25.86;100.00;99724.44;10288726;28;20133;-83
2023/10/30 13:43:00;;;;;;;1.40;0.38;;;;;;;26.08;100.00;99717.97;10291452;28;20050;-84
2023/10/30 13:48:01;;;;;;;0.95;0.65;;;;;;;25.55;100.00;99718.25;10294540;28;20125;-84
2023/10/30 13:53:03;;;;;;;1.92;0.73;;;;;;;24.97;100.00;99715.19;10292882;28;20043;-83
2023/10/30 13:58:04;;;;;;;1.75;0.35;;;;;;;26.24;100.00;99696.81;10276977;28;20042;-82
2023/10/30 14:03:06;;;;;;;0.40;0.40;;;;;;;25.93;100.00;99699.41;10287605;28;20063;-83
2023/10/30 14:08:08;;;;;;;1.05;0.98;;;;;;;27.24;100.00;99687.25;10275550;28;20035;-83
2023/10/30 14:13:09;;;;;;;2.13;1.63;;;;;;;27.80;100.00;99689.00;10287720;28;20046;-83
2023/10/30 14:18:11;;;;;;;0.95;0.82;;;;;;;26.09;100.00;99688.00;10287857;28;20110;-83
2023/10/30 14:23:12;;;;;;;0.90;0.70;;;;;;;26.02;100.00;99684.00;10286809;28;20159;-83
2023/10/30 14:28:14;;;;;;;0.43;0.43;;;;;;;26.37;100.00;99689.84;10289521;28;20469;-82
2023/10/30 14:33:16;;;;;;;0.43;0.25;;;;;;;26.69;100.00;99686.22;10270102;28;20047;-82
2023/10/30 14:38:20;;;;;;;0.00;0.00;;;;;;;26.71;100.00;99679.03;10283023;28;20043;-83
2023/10/30 14:43:22;;;;;;;0.00;0.00;;;;;;;26.69;100.00;99675.66;10285962;28;20051;-83
2023/10/30 14:48:23;;;;;;;0.00;0.00;;;;;;;26.18;100.00;99689.25;10284765;28;20493;-82
2023/10/30 14:53:25;;;;;;;0.00;0.00;;;;;;;26.85;100.00;99688.81;10292544;28;20047;-82
2023/10/30 14:58:27;;;;;;;0.65;0.22;;;;;;;25.16;100.00;99682.56;10287590;28;20051;-84
2023/10/30 15:03:28;;;;;;;0.67;0.30;;;;;;;25.82;100.00;99675.41;10248002;28;1042937;-83
2023/10/30 15:08:30;;;;;;;0.25;0.10;;;;;;;26.32;100.00;99667.31;10269884;28;20047;-82
2023/10/30 15:13:32;;;;;;;0.10;0.10;;;;;;;25.85;100.00;99659.44;10287767;28;20109;-82
2023/10/30 15:18:34;;;;;;;0.63;0.63;;;;;;;26.28;100.00;99651.66;10272942;28;20055;-82
2023/10/30 15:23:35;;;;;;;0.77;0.30;;;;;;;26.04;100.00;99647.78;10285344;28;20058;-82
2023/10/30 15:28:37;;;;;;;0.10;0.10;;;;;;;26.80;100.00;99635.41;10268370;28;20550;-82
2023/10/30 15:33:38;;;;;;;0.13;0.08;;;;;;;26.40;100.00;99638.66;10285945;28;20042;-82
2023/10/30 15:38:40;;;;;;;0.30;0.20;;;;;;;26.49;100.00;99637.25;10282923;28;20492;-83
2023/10/30 15:43:42;;;;;;;0.00;0.00;;;;;;;26.13;100.00;99631.44;10279841;28;20051;-83
2023/10/30 15:48:46;;;;;;;0.60;0.17;;;;;;;26.16;100.00;99631.28;10265056;28;20066;-82
2023/10/30 15:53:49;;;;;;;0.17;0.17;;;;;;;25.43;100.00;99616.97;10301278;28;20093;-82
2023/10/30 15:58:51;;;;;;;0.00;0.00;;;;;;;25.62;100.00;99616.75;10268556;28;20051;-83
2023/10/30 16:03:52;;;;;;;0.00;0.00;;;;;;;25.25;100.00;99617.94;10283462;28;20047;-82
2023/10/30 16:08:54;;;;;;;0.00;0.00;;;;;;;24.92;100.00;99611.81;10277622;28;20505;-83
2023/10/30 16:13:56;;;;;;;0.00;0.00;;;;;;;25.39;100.00;99604.91;10293208;28;20050;-83
2023/10/30 16:18:57;;;;;;;0.00;0.00;;;;;;;24.58;100.00;99591.69;10284363;28;20053;-84
2023/10/30 16:24:02;;;;;;;0.10;0.10;;;;;;;23.57;100.00;99594.16;10281451;28;20559;-83
2023/10/30 16:29:04;;;;;;;3.50;1.45;;;;;;;23.64;100.00;99585.06;10282105;28;20446;-83
2023/10/30 16:34:05;;;;;;;0.00;0.00;;;;;;;23.66;100.00;99582.34;10274458;28;20059;-83
2023/10/30 16:39:07;;;;;;;0.00;0.00;;;;;;;23.77;100.00;99566.88;10282742;28;20627;-83
2023/10/30 16:44:08;;;;;;;0.10;0.00;;;;;;;23.93;100.00;99564.38;10280035;28;20050;-83
2023/10/30 16:49:10;;;;;;;0.00;0.00;;;;;;;24.19;100.00;99564.78;10276369;28;20469;-83
2023/10/30 16:54:11;;;;;;;0.00;0.00;;;;;;;24.15;100.00;99573.78;10282062;28;20050;-83
2023/10/30 16:59:13;;;;;;;0.00;0.00;;;;;;;23.36;100.00;99565.38;10264677;28;20043;-82
2023/10/30 17:04:15;;;;;;;0.00;0.00;;;;;;;23.61;100.00;99572.06;10282511;28;20518;-82
2023/10/30 17:09:16;;;;;;;0.22;0.15;;;;;;;24.52;100.00;99577.09;10281608;28;20564;-82
2023/10/30 17:14:18;;;;;;;0.00;0.00;;;;;;;24.70;100.00;99576.13;10277233;28;20062;-82
2023/10/30 17:19:20;;;;;;;0.00;0.00;;;;;;;24.77;100.00;99565.25;10275628;28;20066;-82
2023/10/30 17:24:21;;;;;;;0.00;0.00;;;;;;;23.58;100.00;99569.56;10281645;28;20050;-83
2023/10/30 17:29:23;;;;;;;0.10;0.10;;;;;;;24.50;100.00;99568.44;10287081;28;20039;-82
2023/10/30 17:34:24;;;;;;;0.00;0.00;;;;;;;24.29;100.00;99565.16;10273448;28;20051;-82
2023/10/30 17:39:26;;;;;;;0.00;0.00;;;;;;;23.04;100.00;99562.50;10278686;28;20433;-82
2023/10/30 17:44:27;;;;;;;0.00;0.00;;;;;;;23.16;100.00;99557.56;10279079;28;20054;-84
2023/10/30 17:49:29;;;;;;;0.00;0.00;;;;;;;23.19;100.00;99546.97;10284049;28;20034;-83
2023/10/30 17:54:31;;;;;;;0.85;0.40;;;;;;;22.73;100.00;99542.06;10275535;28;20058;-82
2023/10/30 17:59:36;;;;;;;0.00;0.00;;;;;;;22.31;100.00;99536.91;10269548;28;20082;-82
2023/10/30 18:04:38;;;;;;;0.15;0.13;;;;;;;21.80;100.00;99533.84;10266514;28;20056;-83
2023/10/30 18:09:39;;;;;;;0.57;0.30;;;;;;;22.03;100.00;99521.53;10281495;28;20050;-83
2023/10/30 18:14:41;;;;;;;0.57;0.38;;;;;;;21.78;100.00;99514.72;10283836;28;20043;-82
2023/10/30 18:19:44;;;;;;;0.95;0.20;;;;;;;21.78;100.00;99512.09;10275934;28;20047;-82
2023/10/30 18:24:45;;;;;;;0.10;0.10;;;;;;;21.78;100.00;99504.22;10281816;28;20071;-82
2023/10/30 18:29:48;;;;;;;0.10;0.10;;;;;;;22.32;100.00;99508.88;10279867;28;20066;-83
2023/10/30 18:34:50;;;;;;;0.08;0.08;;;;;;;22.07;100.00;99515.25;10287015;28;20069;-83
2023/10/30 18:39:52;;;;;;;0.20;0.20;;;;;;;22.61;100.00;99518.09;10300477;28;20441;-83
2023/10/30 18:44:54;;;;;;;1.25;0.50;;;;;;;22.39;100.00;99515.59;10290492;28;20039;-82
2023/10/30 18:49:55;;;;;;;0.00;0.00;;;;;;;23.14;100.00;99507.75;10281858;28;20039;-83
2023/10/30 18:54:57;;;;;;;0.43;0.43;;;;;;;22.15;100.00;99501.78;10287198;28;20042;-83
2023/10/30 18:59:59;;;;;;;0.28;0.28;;;;;;;22.40;100.00;99480.56;10292402;28;20039;-83
2023/10/30 19:05:00;;;;;;;0.20;0.20;;;;;;;22.91;100.00;99480.81;10289651;28;20065;-83
2023/10/30 19:10:02;;;;;;;0.65;0.45;;;;;;;23.32;100.00;99474.50;10282907;28;20590;-83
2023/10/30 19:15:04;;;;;;;0.20;0.20;;;;;;;22.48;100.00;99478.44;10284034;28;20047;-83
2023/10/30 19:20:06;;;;;;;0.75;0.60;;;;;;;22.39;100.00;99472.78;10287166;28;20055;-83
2023/10/30 19:25:08;;;;;;;1.63;1.20;;;;;;;22.73;100.00;99466.78;10284727;28;20059;-83
2023/10/30 19:30:10;;;;;;;0.45;0.43;;;;;;;22.80;100.00;99467.34;10283514;28;20050;-82
2023/10/30 19:35:12;;;;;;;1.77;0.63;;;;;;;22.39;100.00;99457.88;10285406;28;20497;-83
2023/10/30 19:40:14;;;;;;;0.32;0.32;;;;;;;22.70;100.00;99451.19;10286623;28;20039;-82
2023/10/30 19:45:17;;;;;;;0.52;0.52;;;;;;;22.08;100.00;99448.72;10280718;28;20054;-83
2023/10/30 19:50:19;;;;;;;1.40;1.27;;;;;;;22.36;100.00;99447.50;10283236;28;20047;-82
2023/10/30 19:55:20;;;;;;;1.65;1.10;;;;;;;22.15;100.00;99446.69;10287607;28;20054;-83
2023/10/30 20:00:22;;;;;;;0.95;0.65;;;;;;;22.90;100.00;99444.97;10284965;28;20050;-83
2023/10/30 20:05:23;;;;;;;0.98;0.63;;;;;;;22.82;100.00;99449.75;10265846;28;20047;-83
2023/10/30 20:10:25;;;;;;;0.52;0.30;;;;;;;21.81;100.00;99438.56;10300674;28;20039;-83
2023/10/30 20:15:38;;;;;;;1.23;0.65;;;;;;;22.52;100.00;99446.81;10293211;28;20043;-83
2023/10/30 20:20:40;;;;;;;1.08;0.68;;;;;;;22.89;100.00;99447.69;10284716;28;20047;-83
2023/10/30 20:25:41;;;;;;;1.67;0.65;;;;;;;23.03;100.00;99437.34;10288144;28;20105;-83
2023/10/30 20:30:43;;;;;;;0.65;0.43;;;;;;;22.70;100.00;99434.59;10281877;28;20051;-83
2023/10/30 20:35:47;;;;;;;2.38;0.95;;;;;;;24.06;100.00;99423.38;10283229;28;20065;-84
2023/10/30 20:40:49;;;;;;;1.70;0.95;;;;;;;22.22;100.00;99442.03;10286413;28;20047;-83
2023/10/30 20:45:51;;;;;;;1.45;0.98;;;;;;;23.49;100.00;99414.97;10262405;28;20038;-83
2023/10/30 20:50:53;;;;;;;0.52;0.43;;;;;;;22.84;100.00;99428.66;10279107;28;20074;-83
2023/10/30 20:55:55;;;;;;;0.60;0.40;;;;;;;22.96;100.00;99436.78;10284867;28;20057;-84
2023/10/30 21:00:57;;;;;;;0.85;0.85;;;;;;;23.07;100.00;99431.00;10277867;28;20082;-84
2023/10/30 21:05:59;;;;;;;1.45;1.02;;;;;;;22.61;100.00;99417.50;10281348;28;20042;-83
2023/10/30 21:11:00;;;;;;;5.95;1.17;;;;;;;22.91;100.00;99422.19;10283470;28;20134;-83
2023/10/30 21:16:02;;;;;;;0.63;0.30;;;;;;;23.26;100.00;99406.50;10279435;28;20039;-84
2023/10/30 21:21:04;;;;;;;2.85;1.52;;;;;;;22.81;100.00;99401.66;10282118;28;20027;-84
2023/10/30 21:26:05;;;;;;;1.55;0.80;;;;;;;23.07;100.00;99388.97;10256028;28;20167;-84
2023/10/30 21:31:07;;;;;;;2.17;1.25;;;;;;;23.03;100.00;99384.81;10277391;28;20043;-83
2023/10/30 21:36:09;;;;;;;0.60;0.60;;;;;;;23.75;100.00;99375.00;10285950;28;20125;-84
2023/10/30 21:41:10;;;;;;;0.65;0.40;;;;;;;23.84;100.00;99375.44;10284807;28;20047;-83
2023/10/30 21:46:12;;;;;;;1.05;0.95;;;;;;;23.21;100.00;99366.44;10282034;28;20106;-85
2023/10/30 21:51:13;;;;;;;1.67;1.17;;;;;;;23.73;100.00;99355.81;10285587;28;20109;-84
2023/10/30 21:56:20;;;;;;;3.42;0.98;;;;;;;24.53;100.00;99352.41;10275149;28;20053;-84
2023/10/30 22:01:24;;;;;;;1.55;0.52;;;;;;;23.75;100.00;99340.81;10292201;28;20039;-84
2023/10/30 22:06:26;;;;;;;0.70;0.43;;;;;;;23.92;100.00;99333.81;10288558;28;20042;-85
2023/10/30 22:11:28;;;;;;;1.67;1.30;;;;;;;23.52;100.00;99321.03;10283297;28;20062;-84
2023/10/30 22:16:31;;;;;;;1.33;0.82;;;;;;;23.58;100.00;99312.81;10291132;28;20109;-84
2023/10/30 22:21:32;;;;;;;0.65;0.38;;;;;;;23.45;100.00;99306.53;10289737;28;20851;-84
2023/10/30 22:26:34;;;;;;;0.95;0.80;;;;;;;24.01;100.00;99307.03;10274099;28;20097;-84
2023/10/30 22:31:36;;;;;;;1.73;0.88;;;;;;;24.32;100.00;99305.28;10309615;28;20058;-84
2023/10/30 22:36:37;;;;;;;4.55;1.05;;;;;;;24.31;100.00;99285.16;10297501;28;20046;-83
2023/10/30 22:41:39;;;;;;;1.02;0.57;;;;;;;24.65;100.00;99277.09;10292174;28;20437;-83
2023/10/30 22:46:41;;;;;;;0.80;0.80;;;;;;;24.01;100.00;99283.38;10278123;28;20038;-83
2023/10/30 22:51:42;;;;;;;0.88;0.68;;;;;;;24.24;100.00;99279.44;10276793;28;20038;-83
2023/10/30 22:56:44;;;;;;;0.85;0.80;;;;;;;24.30;100.00;99265.06;10287526;28;20442;-84
2023/10/30 23:01:46;;;;;;;1.63;1.27;;;;;;;23.61;100.00;99270.56;10295601;28;20805;-83
2023/10/30 23:06:48;;;;;;;1.63;1.23;;;;;;;23.06;100.00;99263.84;10289477;28;20050;-83
2023/10/30 23:11:49;;;;;;;2.05;1.05;;;;;;;23.21;100.00;99256.97;10288493;28;20050;-83